sensor_id;sensor_type;location;lat;lon;timestamp;P1;durP1;ratioP1;P2;durP2;ratioP2
63693;SDS011;49839;51.798;10.954;2023-06-14T00:01:52;5.40;;;2.05;;
63693;SDS011;49839;51.798;10.954;2023-06-14T00:04:20;10.35;;;2.30;;
63693;SDS011;49839;51.798;10.954;2023-06-14T00:06:49;4.18;;;2.22;;
63693;SDS011;49839;51.798;10.954;2023-06-14T00:09:17;4.15;;;2.20;;
63693;SDS011;49839;51.798;10.954;2023-06-14T00:11:44;8.82;;;2.13;;
63693;SDS011;49839;51.798;10.954;2023-06-14T00:14:12;8.20;;;2.22;;
63693;SDS011;49839;51.798;10.954;2023-06-14T00:16:40;6.68;;;2.42;;
63693;SDS011;49839;51.798;10.954;2023-06-14T00:19:08;10.48;;;2.67;;
63693;SDS011;49839;51.798;10.954;2023-06-14T00:21:37;4.80;;;2.40;;
63693;SDS011;49839;51.798;10.954;2023-06-14T00:24:07;4.55;;;2.10;;
63693;SDS011;49839;51.798;10.954;2023-06-14T00:26:35;7.07;;;1.98;;
63693;SDS011;49839;51.798;10.954;2023-06-14T00:29:02;6.72;;;2.10;;
63693;SDS011;49839;51.798;10.954;2023-06-14T00:31:30;3.42;;;1.90;;
63693;SDS011;49839;51.798;10.954;2023-06-14T00:33:58;4.03;;;1.80;;
63693;SDS011;49839;51.798;10.954;2023-06-14T00:36:25;6.00;;;2.03;;
63693;SDS011;49839;51.798;10.954;2023-06-14T00:38:53;5.85;;;1.95;;
63693;SDS011;49839;51.798;10.954;2023-06-14T00:41:22;4.80;;;1.70;;
63693;SDS011;49839;51.798;10.954;2023-06-14T00:43:50;6.93;;;2.33;;
63693;SDS011;49839;51.798;10.954;2023-06-14T00:46:18;3.92;;;1.67;;
63693;SDS011;49839;51.798;10.954;2023-06-14T00:48:46;4.60;;;1.80;;
63693;SDS011;49839;51.798;10.954;2023-06-14T00:51:14;4.30;;;1.80;;
63693;SDS011;49839;51.798;10.954;2023-06-14T00:53:42;6.65;;;1.90;;
63693;SDS011;49839;51.798;10.954;2023-06-14T00:56:13;6.05;;;1.90;;
63693;SDS011;49839;51.798;10.954;2023-06-14T00:58:42;4.10;;;1.60;;
63693;SDS011;49839;51.798;10.954;2023-06-14T01:01:10;5.53;;;1.77;;
63693;SDS011;49839;51.798;10.954;2023-06-14T01:18:19;4.50;;;1.67;;
63693;SDS011;49839;51.798;10.954;2023-06-14T01:34:32;4.63;;;1.92;;
63693;SDS011;49839;51.798;10.954;2023-06-14T01:37:00;4.32;;;1.52;;
63693;SDS011;49839;51.798;10.954;2023-06-14T01:39:29;3.08;;;1.65;;
63693;SDS011;49839;51.798;10.954;2023-06-14T01:52:49;8.15;;;1.75;;
63693;SDS011;49839;51.798;10.954;2023-06-14T02:31:04;6.35;;;1.83;;
63693;SDS011;49839;51.798;10.954;2023-06-14T02:33:32;4.55;;;1.80;;
63693;SDS011;49839;51.798;10.954;2023-06-14T02:36:01;5.47;;;1.70;;
63693;SDS011;49839;51.798;10.954;2023-06-14T02:46:58;4.95;;;1.90;;
63693;SDS011;49839;51.798;10.954;2023-06-14T02:52:08;3.40;;;1.60;;
63693;SDS011;49839;51.798;10.954;2023-06-14T02:54:36;3.70;;;1.65;;
63693;SDS011;49839;51.798;10.954;2023-06-14T02:57:04;4.70;;;1.98;;
63693;SDS011;49839;51.798;10.954;2023-06-14T03:18:28;5.32;;;1.83;;
63693;SDS011;49839;51.798;10.954;2023-06-14T03:23:38;3.45;;;1.73;;
63693;SDS011;49839;51.798;10.954;2023-06-14T03:28:47;5.25;;;1.80;;
63693;SDS011;49839;51.798;10.954;2023-06-14T03:33:59;6.70;;;1.73;;
63693;SDS011;49839;51.798;10.954;2023-06-14T03:36:27;3.92;;;2.03;;
63693;SDS011;49839;51.798;10.954;2023-06-14T03:38:55;3.00;;;1.70;;
63693;SDS011;49839;51.798;10.954;2023-06-14T03:41:25;4.95;;;1.75;;
63693;SDS011;49839;51.798;10.954;2023-06-14T03:43:58;5.25;;;1.98;;
63693;SDS011;49839;51.798;10.954;2023-06-14T03:54:33;9.10;;;2.63;;
63693;SDS011;49839;51.798;10.954;2023-06-14T03:57:03;6.80;;;1.92;;
63693;SDS011;49839;51.798;10.954;2023-06-14T03:59:32;4.30;;;2.50;;
63693;SDS011;49839;51.798;10.954;2023-06-14T04:04:41;2.45;;;1.50;;
63693;SDS011;49839;51.798;10.954;2023-06-14T04:09:53;5.07;;;1.83;;
63693;SDS011;49839;51.798;10.954;2023-06-14T04:17:44;3.90;;;1.73;;
63693;SDS011;49839;51.798;10.954;2023-06-14T04:20:12;3.58;;;1.88;;
63693;SDS011;49839;51.798;10.954;2023-06-14T04:22:40;3.05;;;1.73;;
63693;SDS011;49839;51.798;10.954;2023-06-14T04:25:11;5.68;;;1.67;;
63693;SDS011;49839;51.798;10.954;2023-06-14T04:27:39;9.32;;;1.80;;
63693;SDS011;49839;51.798;10.954;2023-06-14T04:30:08;3.50;;;1.65;;
63693;SDS011;49839;51.798;10.954;2023-06-14T04:32:36;3.85;;;2.30;;
63693;SDS011;49839;51.798;10.954;2023-06-14T04:35:06;8.35;;;1.75;;
63693;SDS011;49839;51.798;10.954;2023-06-14T04:37:35;6.35;;;1.90;;
63693;SDS011;49839;51.798;10.954;2023-06-14T04:40:07;5.50;;;2.15;;
63693;SDS011;49839;51.798;10.954;2023-06-14T04:42:39;4.53;;;1.65;;
63693;SDS011;49839;51.798;10.954;2023-06-14T04:47:35;2.92;;;1.48;;
63693;SDS011;49839;51.798;10.954;2023-06-14T04:50:04;3.63;;;1.58;;
63693;SDS011;49839;51.798;10.954;2023-06-14T04:52:32;3.55;;;1.50;;
63693;SDS011;49839;51.798;10.954;2023-06-14T04:55:01;6.05;;;1.60;;
63693;SDS011;49839;51.798;10.954;2023-06-14T04:57:30;5.45;;;1.70;;
63693;SDS011;49839;51.798;10.954;2023-06-14T04:59:59;4.53;;;1.63;;
63693;SDS011;49839;51.798;10.954;2023-06-14T05:02:30;5.05;;;1.83;;
63693;SDS011;49839;51.798;10.954;2023-06-14T05:04:58;4.00;;;1.80;;
63693;SDS011;49839;51.798;10.954;2023-06-14T05:07:28;4.57;;;1.85;;
63693;SDS011;49839;51.798;10.954;2023-06-14T05:09:56;4.65;;;1.60;;
63693;SDS011;49839;51.798;10.954;2023-06-14T05:12:24;5.63;;;1.80;;
63693;SDS011;49839;51.798;10.954;2023-06-14T05:14:51;5.68;;;1.63;;
63693;SDS011;49839;51.798;10.954;2023-06-14T05:17:21;3.58;;;1.90;;
63693;SDS011;49839;51.798;10.954;2023-06-14T05:22:16;5.38;;;2.10;;
63693;SDS011;49839;51.798;10.954;2023-06-14T05:24:45;5.00;;;2.25;;
63693;SDS011;49839;51.798;10.954;2023-06-14T05:27:14;4.75;;;2.20;;
63693;SDS011;49839;51.798;10.954;2023-06-14T05:29:43;4.67;;;2.30;;
63693;SDS011;49839;51.798;10.954;2023-06-14T05:32:10;3.58;;;1.83;;
63693;SDS011;49839;51.798;10.954;2023-06-14T05:34:40;3.47;;;1.83;;
63693;SDS011;49839;51.798;10.954;2023-06-14T05:37:07;3.97;;;1.90;;
63693;SDS011;49839;51.798;10.954;2023-06-14T05:39:35;5.97;;;2.65;;
63693;SDS011;49839;51.798;10.954;2023-06-14T05:42:03;7.07;;;2.30;;
63693;SDS011;49839;51.798;10.954;2023-06-14T05:47:00;4.43;;;2.30;;
63693;SDS011;49839;51.798;10.954;2023-06-14T05:49:27;4.43;;;2.15;;
63693;SDS011;49839;51.798;10.954;2023-06-14T05:54:40;5.03;;;2.33;;
63693;SDS011;49839;51.798;10.954;2023-06-14T05:59:36;6.90;;;2.25;;
63693;SDS011;49839;51.798;10.954;2023-06-14T06:02:04;5.78;;;2.30;;
63693;SDS011;49839;51.798;10.954;2023-06-14T06:04:33;4.53;;;2.10;;
63693;SDS011;49839;51.798;10.954;2023-06-14T06:07:01;4.18;;;2.10;;
63693;SDS011;49839;51.798;10.954;2023-06-14T06:09:29;5.60;;;1.98;;
63693;SDS011;49839;51.798;10.954;2023-06-14T06:11:58;5.38;;;2.00;;
63693;SDS011;49839;51.798;10.954;2023-06-14T06:14:25;4.47;;;2.13;;
63693;SDS011;49839;51.798;10.954;2023-06-14T06:16:53;5.47;;;2.10;;
63693;SDS011;49839;51.798;10.954;2023-06-14T06:19:21;4.63;;;2.17;;
63693;SDS011;49839;51.798;10.954;2023-06-14T06:21:49;4.90;;;2.45;;
63693;SDS011;49839;51.798;10.954;2023-06-14T06:24:17;4.20;;;2.33;;
63693;SDS011;49839;51.798;10.954;2023-06-14T06:26:45;3.95;;;2.28;;
63693;SDS011;49839;51.798;10.954;2023-06-14T06:29:14;5.65;;;2.20;;
63693;SDS011;49839;51.798;10.954;2023-06-14T06:31:42;6.38;;;2.50;;
63693;SDS011;49839;51.798;10.954;2023-06-14T06:34:12;6.50;;;2.58;;
63693;SDS011;49839;51.798;10.954;2023-06-14T06:36:39;7.45;;;2.80;;
63693;SDS011;49839;51.798;10.954;2023-06-14T06:39:08;8.10;;;2.35;;
63693;SDS011;49839;51.798;10.954;2023-06-14T06:41:37;7.43;;;2.63;;
63693;SDS011;49839;51.798;10.954;2023-06-14T06:46:49;5.05;;;2.50;;
63693;SDS011;49839;51.798;10.954;2023-06-14T06:51:53;5.60;;;2.60;;
63693;SDS011;49839;51.798;10.954;2023-06-14T06:54:27;5.43;;;2.88;;
63693;SDS011;49839;51.798;10.954;2023-06-14T06:56:54;5.03;;;2.80;;
63693;SDS011;49839;51.798;10.954;2023-06-14T06:59:22;4.80;;;2.58;;
63693;SDS011;49839;51.798;10.954;2023-06-14T08:03:52;5.20;;;3.05;;
63693;SDS011;49839;51.798;10.954;2023-06-14T08:39:23;3.80;;;2.47;;
63693;SDS011;49839;51.798;10.954;2023-06-14T08:41:51;4.38;;;2.25;;
63693;SDS011;49839;51.798;10.954;2023-06-14T09:03:05;3.30;;;1.92;;
63693;SDS011;49839;51.798;10.954;2023-06-14T09:05:40;2.63;;;1.77;;
63693;SDS011;49839;51.798;10.954;2023-06-14T09:08:07;5.85;;;1.70;;
63693;SDS011;49839;51.798;10.954;2023-06-14T09:32:06;5.30;;;1.67;;
63693;SDS011;49839;51.798;10.954;2023-06-14T09:34:35;6.28;;;1.83;;
63693;SDS011;49839;51.798;10.954;2023-06-14T09:39:48;1.85;;;1.48;;
63693;SDS011;49839;51.798;10.954;2023-06-14T09:42:17;2.65;;;1.40;;
63693;SDS011;49839;51.798;10.954;2023-06-14T09:44:45;3.17;;;1.63;;
63693;SDS011;49839;51.798;10.954;2023-06-14T09:47:17;3.88;;;1.88;;
63693;SDS011;49839;51.798;10.954;2023-06-14T09:52:26;5.18;;;1.50;;
63693;SDS011;49839;51.798;10.954;2023-06-14T09:57:23;3.20;;;1.50;;
63693;SDS011;49839;51.798;10.954;2023-06-14T09:59:52;3.85;;;1.48;;
63693;SDS011;49839;51.798;10.954;2023-06-14T10:13:04;3.00;;;1.30;;
63693;SDS011;49839;51.798;10.954;2023-06-14T10:18:17;4.30;;;1.48;;
63693;SDS011;49839;51.798;10.954;2023-06-14T10:20:53;2.75;;;1.15;;
63693;SDS011;49839;51.798;10.954;2023-06-14T10:23:31;3.08;;;1.30;;
63693;SDS011;49839;51.798;10.954;2023-06-14T10:26:04;2.40;;;1.27;;
63693;SDS011;49839;51.798;10.954;2023-06-14T10:28:34;4.03;;;1.30;;
63693;SDS011;49839;51.798;10.954;2023-06-14T10:36:28;2.20;;;1.50;;
63693;SDS011;49839;51.798;10.954;2023-06-14T10:53:00;6.72;;;1.60;;
63693;SDS011;49839;51.798;10.954;2023-06-14T10:55:28;4.85;;;1.23;;
63693;SDS011;49839;51.798;10.954;2023-06-14T10:58:02;6.85;;;1.92;;
63693;SDS011;49839;51.798;10.954;2023-06-14T11:00:30;4.30;;;1.75;;
63693;SDS011;49839;51.798;10.954;2023-06-14T11:03:21;4.38;;;1.48;;
63693;SDS011;49839;51.798;10.954;2023-06-14T11:06:15;10.05;;;1.88;;
63693;SDS011;49839;51.798;10.954;2023-06-14T11:11:58;2.78;;;1.50;;
63693;SDS011;49839;51.798;10.954;2023-06-14T11:14:29;7.05;;;1.80;;
63693;SDS011;49839;51.798;10.954;2023-06-14T11:16:57;5.45;;;1.58;;
63693;SDS011;49839;51.798;10.954;2023-06-14T11:19:27;7.07;;;1.40;;
63693;SDS011;49839;51.798;10.954;2023-06-14T11:21:55;3.27;;;1.47;;
63693;SDS011;49839;51.798;10.954;2023-06-14T11:24:22;4.75;;;1.55;;
63693;SDS011;49839;51.798;10.954;2023-06-14T11:26:51;10.27;;;1.80;;
63693;SDS011;49839;51.798;10.954;2023-06-14T11:29:20;5.00;;;1.90;;
63693;SDS011;49839;51.798;10.954;2023-06-14T11:31:48;4.97;;;1.55;;
63693;SDS011;49839;51.798;10.954;2023-06-14T11:34:16;3.22;;;1.80;;
63693;SDS011;49839;51.798;10.954;2023-06-14T11:36:45;3.78;;;1.80;;
63693;SDS011;49839;51.798;10.954;2023-06-14T11:39:13;4.57;;;1.70;;
63693;SDS011;49839;51.798;10.954;2023-06-14T11:41:42;5.78;;;1.60;;
63693;SDS011;49839;51.798;10.954;2023-06-14T11:44:11;4.65;;;1.50;;
63693;SDS011;49839;51.798;10.954;2023-06-14T11:46:41;16.23;;;2.00;;
63693;SDS011;49839;51.798;10.954;2023-06-14T11:49:09;14.90;;;2.13;;
63693;SDS011;49839;51.798;10.954;2023-06-14T11:51:37;6.55;;;1.65;;
63693;SDS011;49839;51.798;10.954;2023-06-14T11:54:05;33.88;;;2.70;;
63693;SDS011;49839;51.798;10.954;2023-06-14T11:59:02;3.63;;;1.48;;
63693;SDS011;49839;51.798;10.954;2023-06-14T12:01:32;4.47;;;1.67;;
63693;SDS011;49839;51.798;10.954;2023-06-14T12:04:05;4.13;;;1.67;;
63693;SDS011;49839;51.798;10.954;2023-06-14T12:06:33;2.40;;;1.60;;
63693;SDS011;49839;51.798;10.954;2023-06-14T12:09:06;6.38;;;1.50;;
63693;SDS011;49839;51.798;10.954;2023-06-14T12:11:40;5.82;;;1.67;;
63693;SDS011;49839;51.798;10.954;2023-06-14T12:14:08;3.97;;;1.85;;
63693;SDS011;49839;51.798;10.954;2023-06-14T12:16:37;4.45;;;1.73;;
63693;SDS011;49839;51.798;10.954;2023-06-14T12:19:09;4.82;;;1.63;;
63693;SDS011;49839;51.798;10.954;2023-06-14T12:21:39;3.60;;;1.80;;
63693;SDS011;49839;51.798;10.954;2023-06-14T12:24:08;3.30;;;1.83;;
63693;SDS011;49839;51.798;10.954;2023-06-14T12:26:39;3.72;;;1.65;;
63693;SDS011;49839;51.798;10.954;2023-06-14T12:29:08;4.85;;;1.67;;
63693;SDS011;49839;51.798;10.954;2023-06-14T12:31:36;5.78;;;1.50;;
63693;SDS011;49839;51.798;10.954;2023-06-14T12:34:04;3.80;;;1.70;;
63693;SDS011;49839;51.798;10.954;2023-06-14T12:36:33;5.95;;;1.92;;
63693;SDS011;49839;51.798;10.954;2023-06-14T12:39:06;5.70;;;1.80;;
63693;SDS011;49839;51.798;10.954;2023-06-14T12:41:34;3.90;;;2.00;;
63693;SDS011;49839;51.798;10.954;2023-06-14T12:44:03;6.32;;;1.80;;
63693;SDS011;49839;51.798;10.954;2023-06-14T12:46:31;11.97;;;2.20;;
63693;SDS011;49839;51.798;10.954;2023-06-14T12:48:59;5.18;;;1.88;;
63693;SDS011;49839;51.798;10.954;2023-06-14T12:51:27;5.10;;;1.50;;
63693;SDS011;49839;51.798;10.954;2023-06-14T12:53:57;5.93;;;2.00;;
63693;SDS011;49839;51.798;10.954;2023-06-14T12:56:25;7.82;;;1.77;;
63693;SDS011;49839;51.798;10.954;2023-06-14T12:58:53;6.07;;;1.85;;
63693;SDS011;49839;51.798;10.954;2023-06-14T13:01:21;4.32;;;1.95;;
63693;SDS011;49839;51.798;10.954;2023-06-14T13:03:49;4.87;;;2.20;;
63693;SDS011;49839;51.798;10.954;2023-06-14T13:06:20;5.78;;;2.13;;
63693;SDS011;49839;51.798;10.954;2023-06-14T13:08:48;4.78;;;1.95;;
63693;SDS011;49839;51.798;10.954;2023-06-14T13:11:18;10.52;;;2.30;;
63693;SDS011;49839;51.798;10.954;2023-06-14T13:13:46;6.30;;;2.17;;
63693;SDS011;49839;51.798;10.954;2023-06-14T13:16:13;4.97;;;2.15;;
63693;SDS011;49839;51.798;10.954;2023-06-14T13:18:41;7.95;;;2.25;;
63693;SDS011;49839;51.798;10.954;2023-06-14T13:21:09;4.80;;;2.13;;
63693;SDS011;49839;51.798;10.954;2023-06-14T13:23:37;5.07;;;2.20;;
63693;SDS011;49839;51.798;10.954;2023-06-14T13:26:05;4.57;;;2.15;;
63693;SDS011;49839;51.798;10.954;2023-06-14T13:28:34;5.35;;;2.20;;
63693;SDS011;49839;51.798;10.954;2023-06-14T13:31:02;6.10;;;2.08;;
63693;SDS011;49839;51.798;10.954;2023-06-14T13:33:30;6.32;;;2.05;;
63693;SDS011;49839;51.798;10.954;2023-06-14T13:35:59;5.75;;;2.03;;
63693;SDS011;49839;51.798;10.954;2023-06-14T13:38:27;5.28;;;2.00;;
63693;SDS011;49839;51.798;10.954;2023-06-14T13:40:55;4.15;;;1.90;;
63693;SDS011;49839;51.798;10.954;2023-06-14T13:43:24;4.20;;;1.98;;
63693;SDS011;49839;51.798;10.954;2023-06-14T13:45:53;4.82;;;2.13;;
63693;SDS011;49839;51.798;10.954;2023-06-14T13:48:21;7.40;;;2.28;;
63693;SDS011;49839;51.798;10.954;2023-06-14T13:50:50;6.65;;;2.20;;
63693;SDS011;49839;51.798;10.954;2023-06-14T13:53:17;6.32;;;2.30;;
63693;SDS011;49839;51.798;10.954;2023-06-14T13:55:45;12.73;;;2.58;;
63693;SDS011;49839;51.798;10.954;2023-06-14T13:58:14;9.50;;;2.17;;
63693;SDS011;49839;51.798;10.954;2023-06-14T14:00:42;8.05;;;2.15;;
63693;SDS011;49839;51.798;10.954;2023-06-14T14:03:11;4.60;;;2.08;;
63693;SDS011;49839;51.798;10.954;2023-06-14T14:05:38;6.80;;;2.45;;
63693;SDS011;49839;51.798;10.954;2023-06-14T14:08:06;4.43;;;2.00;;
63693;SDS011;49839;51.798;10.954;2023-06-14T14:10:34;4.32;;;2.20;;
63693;SDS011;49839;51.798;10.954;2023-06-14T14:13:02;5.10;;;2.17;;
63693;SDS011;49839;51.798;10.954;2023-06-14T14:15:29;5.28;;;2.22;;
63693;SDS011;49839;51.798;10.954;2023-06-14T14:18:01;4.07;;;2.30;;
63693;SDS011;49839;51.798;10.954;2023-06-14T14:20:31;4.70;;;2.38;;
63693;SDS011;49839;51.798;10.954;2023-06-14T14:25:26;6.63;;;2.25;;
63693;SDS011;49839;51.798;10.954;2023-06-14T14:27:54;15.85;;;2.70;;
63693;SDS011;49839;51.798;10.954;2023-06-14T14:30:22;4.88;;;2.30;;
63693;SDS011;49839;51.798;10.954;2023-06-14T14:32:50;3.45;;;1.92;;
63693;SDS011;49839;51.798;10.954;2023-06-14T14:35:19;4.25;;;2.05;;
63693;SDS011;49839;51.798;10.954;2023-06-14T14:37:52;9.57;;;2.40;;
63693;SDS011;49839;51.798;10.954;2023-06-14T14:42:48;5.22;;;2.30;;
63693;SDS011;49839;51.798;10.954;2023-06-14T14:45:16;7.72;;;2.10;;
63693;SDS011;49839;51.798;10.954;2023-06-14T14:47:44;9.98;;;2.30;;
63693;SDS011;49839;51.798;10.954;2023-06-14T14:50:12;4.25;;;2.15;;
63693;SDS011;49839;51.798;10.954;2023-06-14T14:52:40;7.65;;;2.60;;
63693;SDS011;49839;51.798;10.954;2023-06-14T14:55:09;5.18;;;2.25;;
63693;SDS011;49839;51.798;10.954;2023-06-14T14:57:38;7.15;;;2.80;;
63693;SDS011;49839;51.798;10.954;2023-06-14T15:00:07;8.93;;;2.60;;
63693;SDS011;49839;51.798;10.954;2023-06-14T15:02:35;8.18;;;2.42;;
63693;SDS011;49839;51.798;10.954;2023-06-14T15:05:03;10.88;;;2.80;;
63693;SDS011;49839;51.798;10.954;2023-06-14T15:07:32;6.03;;;2.53;;
63693;SDS011;49839;51.798;10.954;2023-06-14T15:10:01;7.65;;;2.20;;
63693;SDS011;49839;51.798;10.954;2023-06-14T15:12:33;12.77;;;2.60;;
63693;SDS011;49839;51.798;10.954;2023-06-14T15:15:06;6.60;;;2.47;;
63693;SDS011;49839;51.798;10.954;2023-06-14T15:17:36;5.32;;;2.20;;
63693;SDS011;49839;51.798;10.954;2023-06-14T15:20:06;8.82;;;2.22;;
63693;SDS011;49839;51.798;10.954;2023-06-14T15:22:42;7.75;;;2.50;;
63693;SDS011;49839;51.798;10.954;2023-06-14T15:25:13;3.80;;;2.10;;
63693;SDS011;49839;51.798;10.954;2023-06-14T15:27:45;5.30;;;2.40;;
63693;SDS011;49839;51.798;10.954;2023-06-14T15:30:13;6.65;;;2.13;;
63693;SDS011;49839;51.798;10.954;2023-06-14T15:32:41;5.83;;;2.50;;
63693;SDS011;49839;51.798;10.954;2023-06-14T15:35:09;5.03;;;2.58;;
63693;SDS011;49839;51.798;10.954;2023-06-14T15:37:38;5.35;;;2.47;;
63693;SDS011;49839;51.798;10.954;2023-06-14T15:40:06;12.15;;;2.50;;
63693;SDS011;49839;51.798;10.954;2023-06-14T15:42:35;7.47;;;2.30;;
63693;SDS011;49839;51.798;10.954;2023-06-14T15:45:15;6.03;;;2.13;;
63693;SDS011;49839;51.798;10.954;2023-06-14T15:47:43;5.65;;;2.20;;
63693;SDS011;49839;51.798;10.954;2023-06-14T15:50:11;6.85;;;2.63;;
63693;SDS011;49839;51.798;10.954;2023-06-14T15:52:39;9.23;;;2.60;;
63693;SDS011;49839;51.798;10.954;2023-06-14T15:55:07;7.15;;;2.33;;
63693;SDS011;49839;51.798;10.954;2023-06-14T15:57:36;7.20;;;2.67;;
63693;SDS011;49839;51.798;10.954;2023-06-14T16:00:04;8.75;;;2.53;;
63693;SDS011;49839;51.798;10.954;2023-06-14T16:02:34;8.50;;;2.47;;
63693;SDS011;49839;51.798;10.954;2023-06-14T16:07:33;5.72;;;2.47;;
63693;SDS011;49839;51.798;10.954;2023-06-14T16:10:01;8.35;;;2.55;;
63693;SDS011;49839;51.798;10.954;2023-06-14T16:12:29;7.45;;;2.40;;
63693;SDS011;49839;51.798;10.954;2023-06-14T16:14:56;9.48;;;2.30;;
63693;SDS011;49839;51.798;10.954;2023-06-14T16:17:24;5.15;;;2.25;;
63693;SDS011;49839;51.798;10.954;2023-06-14T16:19:54;6.88;;;2.53;;
63693;SDS011;49839;51.798;10.954;2023-06-14T16:24:50;5.72;;;2.42;;
63693;SDS011;49839;51.798;10.954;2023-06-14T16:27:18;7.78;;;2.70;;
63693;SDS011;49839;51.798;10.954;2023-06-14T16:29:49;8.18;;;2.60;;
63693;SDS011;49839;51.798;10.954;2023-06-14T16:32:20;8.43;;;3.00;;
63693;SDS011;49839;51.798;10.954;2023-06-14T16:34:51;6.63;;;2.80;;
63693;SDS011;49839;51.798;10.954;2023-06-14T16:37:32;7.72;;;2.42;;
63693;SDS011;49839;51.798;10.954;2023-06-14T16:40:05;5.38;;;2.20;;
63693;SDS011;49839;51.798;10.954;2023-06-14T16:42:35;6.97;;;2.25;;
63693;SDS011;49839;51.798;10.954;2023-06-14T16:45:04;6.03;;;2.60;;
63693;SDS011;49839;51.798;10.954;2023-06-14T16:47:33;7.05;;;2.45;;
63693;SDS011;49839;51.798;10.954;2023-06-14T16:52:35;9.87;;;2.70;;
63693;SDS011;49839;51.798;10.954;2023-06-14T16:55:07;4.93;;;2.28;;
63693;SDS011;49839;51.798;10.954;2023-06-14T16:57:37;5.00;;;2.03;;
63693;SDS011;49839;51.798;10.954;2023-06-14T17:00:06;5.63;;;2.58;;
63693;SDS011;49839;51.798;10.954;2023-06-14T17:05:04;7.38;;;3.17;;
63693;SDS011;49839;51.798;10.954;2023-06-14T17:07:32;6.65;;;2.38;;
63693;SDS011;49839;51.798;10.954;2023-06-14T17:10:01;11.73;;;2.65;;
63693;SDS011;49839;51.798;10.954;2023-06-14T17:14:59;9.30;;;2.50;;
63693;SDS011;49839;51.798;10.954;2023-06-14T17:17:27;7.07;;;2.28;;
63693;SDS011;49839;51.798;10.954;2023-06-14T17:19:55;6.88;;;2.35;;
63693;SDS011;49839;51.798;10.954;2023-06-14T17:22:24;7.90;;;2.30;;
63693;SDS011;49839;51.798;10.954;2023-06-14T17:24:52;6.30;;;2.50;;
63693;SDS011;49839;51.798;10.954;2023-06-14T17:27:23;5.68;;;2.33;;
63693;SDS011;49839;51.798;10.954;2023-06-14T17:29:51;7.32;;;2.30;;
63693;SDS011;49839;51.798;10.954;2023-06-14T17:32:20;5.47;;;2.55;;
63693;SDS011;49839;51.798;10.954;2023-06-14T17:34:52;7.05;;;2.38;;
63693;SDS011;49839;51.798;10.954;2023-06-14T17:37:20;6.55;;;2.67;;
63693;SDS011;49839;51.798;10.954;2023-06-14T17:39:48;7.55;;;2.60;;
63693;SDS011;49839;51.798;10.954;2023-06-14T17:42:19;9.85;;;2.92;;
63693;SDS011;49839;51.798;10.954;2023-06-14T17:47:21;6.20;;;2.33;;
63693;SDS011;49839;51.798;10.954;2023-06-14T17:50:01;7.22;;;2.50;;
63693;SDS011;49839;51.798;10.954;2023-06-14T17:52:30;6.82;;;2.30;;
63693;SDS011;49839;51.798;10.954;2023-06-14T17:54:57;6.07;;;2.40;;
63693;SDS011;49839;51.798;10.954;2023-06-14T17:57:25;6.53;;;2.25;;
63693;SDS011;49839;51.798;10.954;2023-06-14T17:59:55;6.43;;;2.50;;
63693;SDS011;49839;51.798;10.954;2023-06-14T18:04:51;6.10;;;2.45;;
63693;SDS011;49839;51.798;10.954;2023-06-14T18:07:20;6.13;;;2.30;;
63693;SDS011;49839;51.798;10.954;2023-06-14T18:09:48;6.30;;;2.15;;
63693;SDS011;49839;51.798;10.954;2023-06-14T18:12:18;7.60;;;2.28;;
63693;SDS011;49839;51.798;10.954;2023-06-14T18:14:46;8.98;;;2.55;;
63693;SDS011;49839;51.798;10.954;2023-06-14T18:17:22;5.72;;;2.28;;
63693;SDS011;49839;51.798;10.954;2023-06-14T18:22:18;6.97;;;2.33;;
63693;SDS011;49839;51.798;10.954;2023-06-14T18:24:46;6.00;;;2.30;;
63693;SDS011;49839;51.798;10.954;2023-06-14T18:27:14;6.28;;;2.30;;
63693;SDS011;49839;51.798;10.954;2023-06-14T18:29:45;6.47;;;2.30;;
63693;SDS011;49839;51.798;10.954;2023-06-14T18:32:13;6.05;;;2.60;;
63693;SDS011;49839;51.798;10.954;2023-06-14T18:34:43;17.70;;;2.83;;
63693;SDS011;49839;51.798;10.954;2023-06-14T18:37:11;13.35;;;2.53;;
63693;SDS011;49839;51.798;10.954;2023-06-14T18:39:39;7.18;;;2.50;;
63693;SDS011;49839;51.798;10.954;2023-06-14T18:42:06;8.93;;;2.50;;
63693;SDS011;49839;51.798;10.954;2023-06-14T18:47:19;9.95;;;2.63;;
63693;SDS011;49839;51.798;10.954;2023-06-14T18:55:12;6.82;;;2.55;;
63693;SDS011;49839;51.798;10.954;2023-06-14T19:00:11;7.70;;;2.60;;
63693;SDS011;49839;51.798;10.954;2023-06-14T19:02:42;5.47;;;2.45;;
63693;SDS011;49839;51.798;10.954;2023-06-14T19:05:10;8.35;;;2.60;;
63693;SDS011;49839;51.798;10.954;2023-06-14T19:07:38;8.02;;;2.47;;
63693;SDS011;49839;51.798;10.954;2023-06-14T19:10:06;7.43;;;2.85;;
63693;SDS011;49839;51.798;10.954;2023-06-14T19:12:41;5.95;;;2.80;;
63693;SDS011;49839;51.798;10.954;2023-06-14T19:15:09;7.38;;;2.30;;
63693;SDS011;49839;51.798;10.954;2023-06-14T19:17:37;6.53;;;2.63;;
63693;SDS011;49839;51.798;10.954;2023-06-14T19:20:06;9.65;;;2.53;;
63693;SDS011;49839;51.798;10.954;2023-06-14T19:30:42;8.75;;;2.55;;
63693;SDS011;49839;51.798;10.954;2023-06-14T19:33:13;8.52;;;2.53;;
63693;SDS011;49839;51.798;10.954;2023-06-14T19:35:43;6.55;;;2.47;;
63693;SDS011;49839;51.798;10.954;2023-06-14T19:38:11;9.13;;;2.45;;
63693;SDS011;49839;51.798;10.954;2023-06-14T19:40:39;9.43;;;2.60;;
63693;SDS011;49839;51.798;10.954;2023-06-14T19:43:20;8.48;;;2.70;;
63693;SDS011;49839;51.798;10.954;2023-06-14T19:45:49;8.23;;;2.60;;
63693;SDS011;49839;51.798;10.954;2023-06-14T19:48:17;6.80;;;2.50;;
63693;SDS011;49839;51.798;10.954;2023-06-14T19:50:50;6.40;;;2.53;;
63693;SDS011;49839;51.798;10.954;2023-06-14T19:53:18;8.52;;;2.83;;
63693;SDS011;49839;51.798;10.954;2023-06-14T19:55:49;6.50;;;2.92;;
63693;SDS011;49839;51.798;10.954;2023-06-14T19:58:17;8.18;;;2.67;;
63693;SDS011;49839;51.798;10.954;2023-06-14T20:00:45;10.45;;;3.20;;
63693;SDS011;49839;51.798;10.954;2023-06-14T20:03:17;6.55;;;2.80;;
63693;SDS011;49839;51.798;10.954;2023-06-14T20:08:26;6.82;;;2.70;;
63693;SDS011;49839;51.798;10.954;2023-06-14T20:10:57;8.40;;;3.10;;
63693;SDS011;49839;51.798;10.954;2023-06-14T20:13:24;5.53;;;3.10;;
63693;SDS011;49839;51.798;10.954;2023-06-14T20:15:54;12.52;;;3.13;;
63693;SDS011;49839;51.798;10.954;2023-06-14T20:18:24;9.35;;;2.90;;
63693;SDS011;49839;51.798;10.954;2023-06-14T20:20:52;6.88;;;2.80;;
63693;SDS011;49839;51.798;10.954;2023-06-14T20:23:21;9.05;;;2.58;;
63693;SDS011;49839;51.798;10.954;2023-06-14T20:25:51;6.00;;;2.90;;
63693;SDS011;49839;51.798;10.954;2023-06-14T20:28:19;7.45;;;2.90;;
63693;SDS011;49839;51.798;10.954;2023-06-14T20:30:52;11.52;;;2.88;;
63693;SDS011;49839;51.798;10.954;2023-06-14T20:33:21;7.65;;;2.85;;
63693;SDS011;49839;51.798;10.954;2023-06-14T20:35:49;12.32;;;3.03;;
63693;SDS011;49839;51.798;10.954;2023-06-14T20:38:17;8.23;;;2.80;;
63693;SDS011;49839;51.798;10.954;2023-06-14T20:40:48;7.25;;;2.63;;
63693;SDS011;49839;51.798;10.954;2023-06-14T20:43:19;10.75;;;2.83;;
63693;SDS011;49839;51.798;10.954;2023-06-14T20:45:47;7.40;;;2.90;;
63693;SDS011;49839;51.798;10.954;2023-06-14T20:48:17;9.45;;;2.80;;
63693;SDS011;49839;51.798;10.954;2023-06-14T20:50:47;9.07;;;2.97;;
63693;SDS011;49839;51.798;10.954;2023-06-14T20:53:15;9.70;;;2.90;;
63693;SDS011;49839;51.798;10.954;2023-06-14T20:55:46;8.07;;;2.97;;
63693;SDS011;49839;51.798;10.954;2023-06-14T20:58:16;6.35;;;2.65;;
63693;SDS011;49839;51.798;10.954;2023-06-14T21:00:47;8.77;;;2.50;;
63693;SDS011;49839;51.798;10.954;2023-06-14T21:03:20;6.68;;;3.03;;